sensor_id;sensor_type;location;lat;lon;timestamp;P1;durP1;ratioP1;P2;durP2;ratioP2
16804;SDS011;8520;50.102;20.010;2023-04-28T00:00:54;19.73;;;17.77;;
16804;SDS011;8520;50.102;20.010;2023-04-28T00:03:24;17.80;;;16.00;;
16804;SDS011;8520;50.102;20.010;2023-04-28T00:05:54;20.27;;;18.23;;
16804;SDS011;8520;50.102;20.010;2023-04-28T00:08:23;20.37;;;18.43;;
16804;SDS011;8520;50.102;20.010;2023-04-28T00:10:52;20.93;;;18.80;;
16804;SDS011;8520;50.102;20.010;2023-04-28T00:13:20;19.93;;;16.93;;
16804;SDS011;8520;50.102;20.010;2023-04-28T00:15:48;17.67;;;15.97;;
16804;SDS011;8520;50.102;20.010;2023-04-28T00:18:18;18.60;;;16.70;;
16804;SDS011;8520;50.102;20.010;2023-04-28T00:20:48;19.07;;;17.10;;
16804;SDS011;8520;50.102;20.010;2023-04-28T00:23:17;22.87;;;20.60;;
16804;SDS011;8520;50.102;20.010;2023-04-28T00:25:49;16.93;;;15.33;;
16804;SDS011;8520;50.102;20.010;2023-04-28T00:28:18;16.70;;;15.10;;
16804;SDS011;8520;50.102;20.010;2023-04-28T00:30:59;16.33;;;14.63;;
16804;SDS011;8520;50.102;20.010;2023-04-28T00:33:28;16.47;;;14.93;;
16804;SDS011;8520;50.102;20.010;2023-04-28T00:36:00;17.40;;;15.63;;
16804;SDS011;8520;50.102;20.010;2023-04-28T00:38:30;17.17;;;15.60;;
16804;SDS011;8520;50.102;20.010;2023-04-28T00:40:58;16.90;;;15.30;;
16804;SDS011;8520;50.102;20.010;2023-04-28T00:43:26;17.90;;;16.00;;
16804;SDS011;8520;50.102;20.010;2023-04-28T00:45:54;18.40;;;15.97;;
16804;SDS011;8520;50.102;20.010;2023-04-28T00:48:23;17.00;;;14.87;;
16804;SDS011;8520;50.102;20.010;2023-04-28T00:50:51;15.83;;;14.33;;
16804;SDS011;8520;50.102;20.010;2023-04-28T00:53:21;15.53;;;13.93;;
16804;SDS011;8520;50.102;20.010;2023-04-28T00:55:49;15.70;;;14.10;;
16804;SDS011;8520;50.102;20.010;2023-04-28T00:58:20;13.67;;;12.27;;
16804;SDS011;8520;50.102;20.010;2023-04-28T01:00:48;21.47;;;19.47;;
16804;SDS011;8520;50.102;20.010;2023-04-28T01:03:16;26.67;;;23.83;;
16804;SDS011;8520;50.102;20.010;2023-04-28T01:05:45;30.00;;;27.10;;
16804;SDS011;8520;50.102;20.010;2023-04-28T01:08:13;20.03;;;18.10;;
16804;SDS011;8520;50.102;20.010;2023-04-28T01:10:43;18.03;;;15.30;;
16804;SDS011;8520;50.102;20.010;2023-04-28T01:13:26;14.00;;;12.80;;
16804;SDS011;8520;50.102;20.010;2023-04-28T01:15:54;16.17;;;14.57;;
16804;SDS011;8520;50.102;20.010;2023-04-28T01:18:22;18.27;;;15.87;;
16804;SDS011;8520;50.102;20.010;2023-04-28T01:20:51;28.10;;;24.17;;
16804;SDS011;8520;50.102;20.010;2023-04-28T01:23:20;26.67;;;23.80;;
16804;SDS011;8520;50.102;20.010;2023-04-28T01:25:49;25.70;;;23.10;;
16804;SDS011;8520;50.102;20.010;2023-04-28T01:28:17;26.27;;;23.47;;
16804;SDS011;8520;50.102;20.010;2023-04-28T01:30:45;24.77;;;22.33;;
16804;SDS011;8520;50.102;20.010;2023-04-28T01:33:13;23.97;;;21.47;;
16804;SDS011;8520;50.102;20.010;2023-04-28T01:35:41;23.37;;;21.10;;
16804;SDS011;8520;50.102;20.010;2023-04-28T01:38:09;20.87;;;18.37;;
16804;SDS011;8520;50.102;20.010;2023-04-28T01:40:37;22.60;;;20.27;;
16804;SDS011;8520;50.102;20.010;2023-04-28T01:43:07;25.33;;;22.93;;
16804;SDS011;8520;50.102;20.010;2023-04-28T01:45:35;26.40;;;22.60;;
16804;SDS011;8520;50.102;20.010;2023-04-28T01:48:03;23.13;;;21.03;;
16804;SDS011;8520;50.102;20.010;2023-04-28T01:50:32;25.97;;;23.20;;
16804;SDS011;8520;50.102;20.010;2023-04-28T01:53:03;26.83;;;23.50;;
16804;SDS011;8520;50.102;20.010;2023-04-28T01:55:31;23.27;;;20.87;;
16804;SDS011;8520;50.102;20.010;2023-04-28T01:57:59;26.17;;;23.33;;
16804;SDS011;8520;50.102;20.010;2023-04-28T02:00:30;25.23;;;22.53;;
16804;SDS011;8520;50.102;20.010;2023-04-28T02:02:58;25.03;;;22.37;;
16804;SDS011;8520;50.102;20.010;2023-04-28T02:05:26;25.40;;;22.87;;
16804;SDS011;8520;50.102;20.010;2023-04-28T02:07:54;24.83;;;22.33;;
16804;SDS011;8520;50.102;20.010;2023-04-28T02:10:23;25.87;;;22.90;;
16804;SDS011;8520;50.102;20.010;2023-04-28T02:12:51;25.93;;;23.63;;
16804;SDS011;8520;50.102;20.010;2023-04-28T02:15:20;27.77;;;24.57;;
16804;SDS011;8520;50.102;20.010;2023-04-28T02:17:50;26.83;;;24.10;;
16804;SDS011;8520;50.102;20.010;2023-04-28T02:20:18;28.77;;;25.93;;
16804;SDS011;8520;50.102;20.010;2023-04-28T02:22:47;27.33;;;24.60;;
16804;SDS011;8520;50.102;20.010;2023-04-28T02:25:16;27.73;;;24.77;;
16804;SDS011;8520;50.102;20.010;2023-04-28T02:27:44;30.10;;;27.10;;
16804;SDS011;8520;50.102;20.010;2023-04-28T02:30:12;30.27;;;27.07;;
16804;SDS011;8520;50.102;20.010;2023-04-28T02:32:40;29.80;;;26.73;;
16804;SDS011;8520;50.102;20.010;2023-04-28T02:35:10;28.00;;;25.10;;
16804;SDS011;8520;50.102;20.010;2023-04-28T02:37:38;30.37;;;27.20;;
16804;SDS011;8520;50.102;20.010;2023-04-28T02:40:07;30.03;;;26.90;;
16804;SDS011;8520;50.102;20.010;2023-04-28T02:42:35;30.17;;;27.03;;
16804;SDS011;8520;50.102;20.010;2023-04-28T02:45:04;29.60;;;26.70;;
16804;SDS011;8520;50.102;20.010;2023-04-28T02:47:33;27.07;;;24.27;;
16804;SDS011;8520;50.102;20.010;2023-04-28T02:50:01;28.10;;;25.30;;
16804;SDS011;8520;50.102;20.010;2023-04-28T02:52:31;29.77;;;26.50;;
16804;SDS011;8520;50.102;20.010;2023-04-28T02:54:59;28.67;;;25.80;;
16804;SDS011;8520;50.102;20.010;2023-04-28T02:57:29;28.37;;;25.37;;
16804;SDS011;8520;50.102;20.010;2023-04-28T02:59:57;27.83;;;25.00;;
16804;SDS011;8520;50.102;20.010;2023-04-28T03:02:30;27.10;;;24.40;;
16804;SDS011;8520;50.102;20.010;2023-04-28T03:04:58;29.70;;;26.70;;
16804;SDS011;8520;50.102;20.010;2023-04-28T03:07:27;28.50;;;25.70;;
16804;SDS011;8520;50.102;20.010;2023-04-28T03:09:57;30.67;;;27.57;;
16804;SDS011;8520;50.102;20.010;2023-04-28T03:12:25;29.40;;;26.27;;
16804;SDS011;8520;50.102;20.010;2023-04-28T03:14:53;29.23;;;26.47;;
16804;SDS011;8520;50.102;20.010;2023-04-28T03:17:21;32.97;;;28.60;;
16804;SDS011;8520;50.102;20.010;2023-04-28T03:19:50;31.53;;;28.23;;
16804;SDS011;8520;50.102;20.010;2023-04-28T03:22:18;31.10;;;27.97;;
16804;SDS011;8520;50.102;20.010;2023-04-28T03:24:46;30.00;;;26.87;;
16804;SDS011;8520;50.102;20.010;2023-04-28T03:27:16;29.97;;;26.80;;
16804;SDS011;8520;50.102;20.010;2023-04-28T03:29:44;29.83;;;27.00;;
16804;SDS011;8520;50.102;20.010;2023-04-28T03:32:13;30.70;;;27.60;;
16804;SDS011;8520;50.102;20.010;2023-04-28T03:34:42;30.90;;;27.53;;
16804;SDS011;8520;50.102;20.010;2023-04-28T03:37:10;31.43;;;27.17;;
16804;SDS011;8520;50.102;20.010;2023-04-28T03:39:39;30.73;;;27.67;;
16804;SDS011;8520;50.102;20.010;2023-04-28T03:42:07;30.13;;;27.03;;
16804;SDS011;8520;50.102;20.010;2023-04-28T03:44:55;30.27;;;27.47;;
16804;SDS011;8520;50.102;20.010;2023-04-28T03:47:23;31.50;;;28.10;;
16804;SDS011;8520;50.102;20.010;2023-04-28T03:49:51;30.23;;;27.17;;
16804;SDS011;8520;50.102;20.010;2023-04-28T03:52:19;29.70;;;26.93;;
16804;SDS011;8520;50.102;20.010;2023-04-28T03:54:48;29.40;;;26.20;;
16804;SDS011;8520;50.102;20.010;2023-04-28T03:57:17;30.40;;;26.90;;
16804;SDS011;8520;50.102;20.010;2023-04-28T03:59:45;30.70;;;27.73;;
16804;SDS011;8520;50.102;20.010;2023-04-28T04:02:16;30.73;;;27.53;;
16804;SDS011;8520;50.102;20.010;2023-04-28T04:04:44;30.30;;;27.30;;
16804;SDS011;8520;50.102;20.010;2023-04-28T04:07:13;29.00;;;25.93;;
16804;SDS011;8520;50.102;20.010;2023-04-28T04:09:41;30.67;;;27.37;;
16804;SDS011;8520;50.102;20.010;2023-04-28T04:12:09;30.70;;;27.70;;
16804;SDS011;8520;50.102;20.010;2023-04-28T04:14:37;31.63;;;28.50;;
16804;SDS011;8520;50.102;20.010;2023-04-28T04:17:06;33.93;;;29.40;;
16804;SDS011;8520;50.102;20.010;2023-04-28T04:19:35;33.07;;;28.63;;
16804;SDS011;8520;50.102;20.010;2023-04-28T04:22:03;32.57;;;29.13;;
16804;SDS011;8520;50.102;20.010;2023-04-28T04:24:32;31.43;;;27.83;;
16804;SDS011;8520;50.102;20.010;2023-04-28T04:27:01;32.83;;;28.93;;
16804;SDS011;8520;50.102;20.010;2023-04-28T04:29:39;32.33;;;28.83;;
16804;SDS011;8520;50.102;20.010;2023-04-28T04:32:11;32.00;;;28.43;;
16804;SDS011;8520;50.102;20.010;2023-04-28T04:34:42;33.13;;;29.73;;
16804;SDS011;8520;50.102;20.010;2023-04-28T04:37:10;33.20;;;29.50;;
16804;SDS011;8520;50.102;20.010;2023-04-28T04:39:44;33.27;;;29.80;;
16804;SDS011;8520;50.102;20.010;2023-04-28T04:42:16;35.17;;;31.73;;
16804;SDS011;8520;50.102;20.010;2023-04-28T04:45:06;36.33;;;32.60;;
16804;SDS011;8520;50.102;20.010;2023-04-28T04:47:35;37.33;;;33.70;;
16804;SDS011;8520;50.102;20.010;2023-04-28T04:50:05;35.63;;;32.10;;
16804;SDS011;8520;50.102;20.010;2023-04-28T04:52:34;37.80;;;33.97;;
16804;SDS011;8520;50.102;20.010;2023-04-28T04:55:03;37.47;;;33.73;;
16804;SDS011;8520;50.102;20.010;2023-04-28T04:57:34;37.97;;;34.17;;
16804;SDS011;8520;50.102;20.010;2023-04-28T05:00:04;36.90;;;33.00;;
16804;SDS011;8520;50.102;20.010;2023-04-28T05:02:33;35.90;;;32.40;;
16804;SDS011;8520;50.102;20.010;2023-04-28T05:05:06;33.30;;;30.27;;
16804;SDS011;8520;50.102;20.010;2023-04-28T05:07:55;33.43;;;30.23;;
16804;SDS011;8520;50.102;20.010;2023-04-28T05:10:23;33.53;;;29.50;;
16804;SDS011;8520;50.102;20.010;2023-04-28T05:12:53;32.93;;;29.73;;
16804;SDS011;8520;50.102;20.010;2023-04-28T05:15:21;31.20;;;28.33;;
16804;SDS011;8520;50.102;20.010;2023-04-28T05:18:09;31.87;;;28.57;;
16804;SDS011;8520;50.102;20.010;2023-04-28T05:20:40;31.77;;;28.47;;
16804;SDS011;8520;50.102;20.010;2023-04-28T05:23:09;30.60;;;27.57;;
16804;SDS011;8520;50.102;20.010;2023-04-28T05:25:37;29.20;;;26.30;;
16804;SDS011;8520;50.102;20.010;2023-04-28T05:28:07;27.27;;;24.50;;
16804;SDS011;8520;50.102;20.010;2023-04-28T05:30:35;29.27;;;23.87;;
16804;SDS011;8520;50.102;20.010;2023-04-28T05:33:04;24.57;;;22.13;;
16804;SDS011;8520;50.102;20.010;2023-04-28T05:35:32;25.43;;;22.90;;
16804;SDS011;8520;50.102;20.010;2023-04-28T05:38:02;24.03;;;21.67;;
16804;SDS011;8520;50.102;20.010;2023-04-28T05:40:30;24.03;;;20.77;;
16804;SDS011;8520;50.102;20.010;2023-04-28T05:42:59;23.37;;;21.00;;
16804;SDS011;8520;50.102;20.010;2023-04-28T05:45:27;23.33;;;20.67;;
16804;SDS011;8520;50.102;20.010;2023-04-28T05:47:56;22.03;;;19.60;;
16804;SDS011;8520;50.102;20.010;2023-04-28T05:50:25;20.90;;;18.90;;
16804;SDS011;8520;50.102;20.010;2023-04-28T05:52:53;20.03;;;18.10;;
16804;SDS011;8520;50.102;20.010;2023-04-28T05:55:23;19.67;;;17.73;;
16804;SDS011;8520;50.102;20.010;2023-04-28T05:57:52;17.60;;;15.77;;
16804;SDS011;8520;50.102;20.010;2023-04-28T06:00:21;17.50;;;15.77;;
16804;SDS011;8520;50.102;20.010;2023-04-28T06:02:52;17.90;;;16.20;;
16804;SDS011;8520;50.102;20.010;2023-04-28T06:05:21;15.53;;;14.03;;
16804;SDS011;8520;50.102;20.010;2023-04-28T06:07:52;15.47;;;13.97;;
16804;SDS011;8520;50.102;20.010;2023-04-28T06:10:21;16.93;;;15.43;;
16804;SDS011;8520;50.102;20.010;2023-04-28T06:12:52;16.60;;;15.00;;
16804;SDS011;8520;50.102;20.010;2023-04-28T06:15:20;16.73;;;15.03;;
16804;SDS011;8520;50.102;20.010;2023-04-28T06:17:48;17.50;;;14.07;;
16804;SDS011;8520;50.102;20.010;2023-04-28T06:20:17;17.40;;;14.37;;
16804;SDS011;8520;50.102;20.010;2023-04-28T06:22:46;14.60;;;13.30;;
16804;SDS011;8520;50.102;20.010;2023-04-28T06:25:14;15.40;;;13.80;;
16804;SDS011;8520;50.102;20.010;2023-04-28T06:27:45;16.53;;;14.30;;
16804;SDS011;8520;50.102;20.010;2023-04-28T06:30:16;15.97;;;14.43;;
16804;SDS011;8520;50.102;20.010;2023-04-28T06:32:45;17.67;;;14.60;;
16804;SDS011;8520;50.102;20.010;2023-04-28T06:35:14;14.67;;;13.40;;
16804;SDS011;8520;50.102;20.010;2023-04-28T06:37:43;15.83;;;14.43;;
16804;SDS011;8520;50.102;20.010;2023-04-28T06:40:11;15.50;;;13.93;;
16804;SDS011;8520;50.102;20.010;2023-04-28T06:42:46;15.37;;;13.97;;
16804;SDS011;8520;50.102;20.010;2023-04-28T06:45:19;14.13;;;12.77;;
16804;SDS011;8520;50.102;20.010;2023-04-28T06:47:47;18.57;;;13.80;;
16804;SDS011;8520;50.102;20.010;2023-04-28T06:50:15;14.27;;;12.87;;
16804;SDS011;8520;50.102;20.010;2023-04-28T06:52:43;14.30;;;12.90;;
16804;SDS011;8520;50.102;20.010;2023-04-28T06:55:13;14.80;;;12.73;;
16804;SDS011;8520;50.102;20.010;2023-04-28T06:57:42;15.07;;;13.17;;
16804;SDS011;8520;50.102;20.010;2023-04-28T07:00:14;14.13;;;12.80;;
16804;SDS011;8520;50.102;20.010;2023-04-28T07:02:43;15.33;;;13.10;;
16804;SDS011;8520;50.102;20.010;2023-04-28T07:05:11;18.50;;;13.43;;
16804;SDS011;8520;50.102;20.010;2023-04-28T07:07:42;14.83;;;13.10;;
16804;SDS011;8520;50.102;20.010;2023-04-28T07:10:10;15.27;;;12.77;;
16804;SDS011;8520;50.102;20.010;2023-04-28T07:12:38;15.97;;;12.10;;
16804;SDS011;8520;50.102;20.010;2023-04-28T07:15:07;13.60;;;12.30;;
16804;SDS011;8520;50.102;20.010;2023-04-28T07:17:37;15.63;;;13.67;;
16804;SDS011;8520;50.102;20.010;2023-04-28T07:20:05;20.23;;;13.63;;
16804;SDS011;8520;50.102;20.010;2023-04-28T07:22:34;14.90;;;13.37;;
16804;SDS011;8520;50.102;20.010;2023-04-28T07:25:04;15.37;;;13.47;;
16804;SDS011;8520;50.102;20.010;2023-04-28T07:27:32;13.67;;;12.23;;
16804;SDS011;8520;50.102;20.010;2023-04-28T07:30:00;11.50;;;10.40;;
16804;SDS011;8520;50.102;20.010;2023-04-28T07:32:45;15.20;;;11.60;;
16804;SDS011;8520;50.102;20.010;2023-04-28T07:35:13;12.23;;;10.93;;
16804;SDS011;8520;50.102;20.010;2023-04-28T07:37:42;12.93;;;11.80;;
16804;SDS011;8520;50.102;20.010;2023-04-28T07:40:11;12.97;;;11.47;;
16804;SDS011;8520;50.102;20.010;2023-04-28T07:42:43;13.87;;;11.80;;
16804;SDS011;8520;50.102;20.010;2023-04-28T07:45:11;14.80;;;11.80;;
16804;SDS011;8520;50.102;20.010;2023-04-28T07:47:39;12.10;;;10.77;;
16804;SDS011;8520;50.102;20.010;2023-04-28T07:50:10;10.20;;;8.57;;
16804;SDS011;8520;50.102;20.010;2023-04-28T07:52:38;7.77;;;7.03;;
16804;SDS011;8520;50.102;20.010;2023-04-28T07:55:07;7.37;;;6.70;;
16804;SDS011;8520;50.102;20.010;2023-04-28T07:57:35;7.27;;;6.50;;
16804;SDS011;8520;50.102;20.010;2023-04-28T08:00:04;7.20;;;6.50;;
16804;SDS011;8520;50.102;20.010;2023-04-28T08:02:38;6.43;;;5.93;;
16804;SDS011;8520;50.102;20.010;2023-04-28T08:05:07;6.63;;;6.07;;
16804;SDS011;8520;50.102;20.010;2023-04-28T08:07:37;7.93;;;7.13;;
16804;SDS011;8520;50.102;20.010;2023-04-28T08:10:07;6.83;;;6.17;;
16804;SDS011;8520;50.102;20.010;2023-04-28T08:12:36;7.27;;;6.57;;
16804;SDS011;8520;50.102;20.010;2023-04-28T08:15:07;8.53;;;6.83;;
16804;SDS011;8520;50.102;20.010;2023-04-28T08:17:36;9.80;;;6.93;;
16804;SDS011;8520;50.102;20.010;2023-04-28T08:20:05;7.45;;;6.70;;
16804;SDS011;8520;50.102;20.010;2023-04-28T08:22:34;7.20;;;6.60;;
16804;SDS011;8520;50.102;20.010;2023-04-28T08:25:04;7.53;;;6.00;;
16804;SDS011;8520;50.102;20.010;2023-04-28T08:27:33;7.50;;;6.28;;
16804;SDS011;8520;50.102;20.010;2023-04-28T08:30:03;7.40;;;6.80;;
16804;SDS011;8520;50.102;20.010;2023-04-28T08:32:32;7.35;;;6.05;;
16804;SDS011;8520;50.102;20.010;2023-04-28T08:35:00;7.13;;;6.47;;
16804;SDS011;8520;50.102;20.010;2023-04-28T08:37:29;6.57;;;5.88;;
16804;SDS011;8520;50.102;20.010;2023-04-28T08:39:57;6.07;;;5.57;;
16804;SDS011;8520;50.102;20.010;2023-04-28T08:42:31;6.35;;;5.72;;
16804;SDS011;8520;50.102;20.010;2023-04-28T08:45:01;8.65;;;7.97;;
16804;SDS011;8520;50.102;20.010;2023-04-28T08:47:32;6.45;;;5.85;;
16804;SDS011;8520;50.102;20.010;2023-04-28T08:50:02;8.13;;;5.65;;
16804;SDS011;8520;50.102;20.010;2023-04-28T08:52:31;6.50;;;5.72;;
16804;SDS011;8520;50.102;20.010;2023-04-28T08:55:01;5.90;;;5.35;;
16804;SDS011;8520;50.102;20.010;2023-04-28T08:57:36;6.80;;;6.25;;
16804;SDS011;8520;50.102;20.010;2023-04-28T09:00:07;6.05;;;5.55;;
16804;SDS011;8520;50.102;20.010;2023-04-28T09:02:36;5.85;;;5.35;;
16804;SDS011;8520;50.102;20.010;2023-04-28T09:05:08;13.00;;;10.73;;
16804;SDS011;8520;50.102;20.010;2023-04-28T09:07:37;7.13;;;6.43;;
16804;SDS011;8520;50.102;20.010;2023-04-28T09:10:18;5.93;;;5.13;;
16804;SDS011;8520;50.102;20.010;2023-04-28T09:12:49;6.40;;;5.43;;
16804;SDS011;8520;50.102;20.010;2023-04-28T09:15:25;5.80;;;5.30;;
16804;SDS011;8520;50.102;20.010;2023-04-28T09:17:58;5.20;;;4.80;;
16804;SDS011;8520;50.102;20.010;2023-04-28T09:20:26;5.78;;;5.20;;
16804;SDS011;8520;50.102;20.010;2023-04-28T09:22:56;6.05;;;5.20;;
16804;SDS011;8520;50.102;20.010;2023-04-28T09:25:39;5.68;;;5.10;;
16804;SDS011;8520;50.102;20.010;2023-04-28T09:28:19;6.20;;;4.57;;
16804;SDS011;8520;50.102;20.010;2023-04-28T09:30:48;6.05;;;5.50;;
16804;SDS011;8520;50.102;20.010;2023-04-28T09:33:16;6.47;;;5.88;;
16804;SDS011;8520;50.102;20.010;2023-04-28T09:35:44;6.05;;;5.55;;
16804;SDS011;8520;50.102;20.010;2023-04-28T09:38:13;6.78;;;6.13;;
16804;SDS011;8520;50.102;20.010;2023-04-28T09:40:48;6.53;;;5.93;;
16804;SDS011;8520;50.102;20.010;2023-04-28T09:43:28;5.63;;;5.13;;
16804;SDS011;8520;50.102;20.010;2023-04-28T09:45:58;5.80;;;5.15;;
16804;SDS011;8520;50.102;20.010;2023-04-28T09:48:28;7.53;;;5.30;;
16804;SDS011;8520;50.102;20.010;2023-04-28T09:50:58;6.63;;;5.25;;
16804;SDS011;8520;50.102;20.010;2023-04-28T09:53:28;5.85;;;5.35;;
16804;SDS011;8520;50.102;20.010;2023-04-28T09:55:57;6.72;;;5.20;;
16804;SDS011;8520;50.102;20.010;2023-04-28T09:58:28;6.00;;;5.40;;
16804;SDS011;8520;50.102;20.010;2023-04-28T10:00:58;5.93;;;5.40;;
16804;SDS011;8520;50.102;20.010;2023-04-28T10:03:28;5.95;;;5.45;;
16804;SDS011;8520;50.102;20.010;2023-04-28T10:05:57;5.38;;;4.97;;
16804;SDS011;8520;50.102;20.010;2023-04-28T10:08:26;6.05;;;5.55;;
16804;SDS011;8520;50.102;20.010;2023-04-28T10:10:55;6.18;;;5.68;;
16804;SDS011;8520;50.102;20.010;2023-04-28T10:13:24;5.57;;;5.10;;
16804;SDS011;8520;50.102;20.010;2023-04-28T10:15:53;6.63;;;5.70;;
16804;SDS011;8520;50.102;20.010;2023-04-28T10:18:24;6.75;;;5.47;;
16804;SDS011;8520;50.102;20.010;2023-04-28T10:20:53;6.53;;;5.50;;
16804;SDS011;8520;50.102;20.010;2023-04-28T10:23:30;6.00;;;5.40;;
16804;SDS011;8520;50.102;20.010;2023-04-28T10:26:14;6.75;;;6.25;;
16804;SDS011;8520;50.102;20.010;2023-04-28T10:28:45;5.97;;;5.55;;
16804;SDS011;8520;50.102;20.010;2023-04-28T10:31:15;6.30;;;5.90;;
16804;SDS011;8520;50.102;20.010;2023-04-28T10:33:46;8.65;;;6.43;;
16804;SDS011;8520;50.102;20.010;2023-04-28T10:39:18;6.38;;;5.65;;
16804;SDS011;8520;50.102;20.010;2023-04-28T10:41:46;6.20;;;5.70;;
16804;SDS011;8520;50.102;20.010;2023-04-28T10:47:12;6.57;;;5.78;;
16804;SDS011;8520;50.102;20.010;2023-04-28T10:52:47;6.32;;;5.82;;
16804;SDS011;8520;50.102;20.010;2023-04-28T10:55:25;6.88;;;6.00;;
16804;SDS011;8520;50.102;20.010;2023-04-28T11:00:55;7.22;;;6.45;;
16804;SDS011;8520;50.102;20.010;2023-04-28T11:03:55;8.88;;;6.15;;
16804;SDS011;8520;50.102;20.010;2023-04-28T11:06:30;7.22;;;6.13;;
16804;SDS011;8520;50.102;20.010;2023-04-28T11:09:00;8.38;;;6.60;;
16804;SDS011;8520;50.102;20.010;2023-04-28T11:11:30;5.70;;;5.30;;
16804;SDS011;8520;50.102;20.010;2023-04-28T11:17:00;8.10;;;7.40;;
16804;SDS011;8520;50.102;20.010;2023-04-28T11:19:32;6.53;;;5.93;;
16804;SDS011;8520;50.102;20.010;2023-04-28T11:22:01;6.15;;;5.38;;
16804;SDS011;8520;50.102;20.010;2023-04-28T11:24:30;6.72;;;5.95;;
16804;SDS011;8520;50.102;20.010;2023-04-28T11:26:59;6.97;;;6.38;;
16804;SDS011;8520;50.102;20.010;2023-04-28T11:29:31;7.57;;;6.22;;
16804;SDS011;8520;50.102;20.010;2023-04-28T11:32:00;6.60;;;6.00;;
16804;SDS011;8520;50.102;20.010;2023-04-28T11:34:31;6.63;;;6.05;;
16804;SDS011;8520;50.102;20.010;2023-04-28T11:36:59;7.18;;;6.57;;
16804;SDS011;8520;50.102;20.010;2023-04-28T11:39:29;6.85;;;6.25;;
16804;SDS011;8520;50.102;20.010;2023-04-28T11:41:58;7.10;;;6.60;;
16804;SDS011;8520;50.102;20.010;2023-04-28T11:44:28;6.53;;;6.03;;
16804;SDS011;8520;50.102;20.010;2023-04-28T11:46:57;7.00;;;6.30;;
16804;SDS011;8520;50.102;20.010;2023-04-28T11:49:28;6.65;;;6.05;;
16804;SDS011;8520;50.102;20.010;2023-04-28T11:52:04;8.88;;;6.32;;
16804;SDS011;8520;50.102;20.010;2023-04-28T11:54:34;7.72;;;7.00;;
16804;SDS011;8520;50.102;20.010;2023-04-28T11:57:03;6.95;;;6.30;;
16804;SDS011;8520;50.102;20.010;2023-04-28T11:59:32;6.35;;;5.85;;
16804;SDS011;8520;50.102;20.010;2023-04-28T12:02:03;6.25;;;5.72;;
16804;SDS011;8520;50.102;20.010;2023-04-28T12:04:33;7.13;;;6.50;;
16804;SDS011;8520;50.102;20.010;2023-04-28T12:07:05;6.65;;;6.10;;
16804;SDS011;8520;50.102;20.010;2023-04-28T12:09:36;6.88;;;6.30;;
16804;SDS011;8520;50.102;20.010;2023-04-28T12:12:05;6.45;;;5.95;;
16804;SDS011;8520;50.102;20.010;2023-04-28T12:17:22;9.13;;;6.18;;
16804;SDS011;8520;50.102;20.010;2023-04-28T12:19:52;6.45;;;5.90;;
16804;SDS011;8520;50.102;20.010;2023-04-28T12:22:22;7.03;;;6.20;;
16804;SDS011;8520;50.102;20.010;2023-04-28T12:25:03;6.57;;;5.97;;
16804;SDS011;8520;50.102;20.010;2023-04-28T12:27:33;6.80;;;6.18;;
16804;SDS011;8520;50.102;20.010;2023-04-28T12:32:51;6.93;;;6.22;;
16804;SDS011;8520;50.102;20.010;2023-04-28T12:35:21;6.80;;;6.30;;
16804;SDS011;8520;50.102;20.010;2023-04-28T12:37:51;6.95;;;6.35;;
16804;SDS011;8520;50.102;20.010;2023-04-28T12:40:21;7.97;;;7.35;;
16804;SDS011;8520;50.102;20.010;2023-04-28T12:42:50;6.85;;;6.28;;
16804;SDS011;8520;50.102;20.010;2023-04-28T12:45:18;6.47;;;5.97;;
16804;SDS011;8520;50.102;20.010;2023-04-28T12:47:46;6.55;;;5.53;;
16804;SDS011;8520;50.102;20.010;2023-04-28T12:50:14;7.03;;;6.32;;
16804;SDS011;8520;50.102;20.010;2023-04-28T12:52:42;8.27;;;5.75;;
16804;SDS011;8520;50.102;20.010;2023-04-28T12:55:12;7.43;;;6.50;;
16804;SDS011;8520;50.102;20.010;2023-04-28T12:57:40;6.82;;;6.07;;
16804;SDS011;8520;50.102;20.010;2023-04-28T13:00:08;6.97;;;6.53;;
16804;SDS011;8520;50.102;20.010;2023-04-28T13:02:39;6.45;;;5.85;;
16804;SDS011;8520;50.102;20.010;2023-04-28T13:05:08;8.55;;;5.85;;
16804;SDS011;8520;50.102;20.010;2023-04-28T13:07:36;7.32;;;6.68;;
16804;SDS011;8520;50.102;20.010;2023-04-28T13:10:05;6.60;;;6.00;;
16804;SDS011;8520;50.102;20.010;2023-04-28T13:12:36;6.65;;;5.93;;
16804;SDS011;8520;50.102;20.010;2023-04-28T13:15:04;6.80;;;6.30;;
16804;SDS011;8520;50.102;20.010;2023-04-28T13:17:33;6.25;;;5.57;;
16804;SDS011;8520;50.102;20.010;2023-04-28T13:20:01;6.68;;;5.72;;
16804;SDS011;8520;50.102;20.010;2023-04-28T13:22:31;7.25;;;6.60;;
16804;SDS011;8520;50.102;20.010;2023-04-28T13:24:58;6.32;;;5.78;;
16804;SDS011;8520;50.102;20.010;2023-04-28T13:27:27;6.60;;;6.03;;
16804;SDS011;8520;50.102;20.010;2023-04-28T13:29:57;8.57;;;5.57;;
16804;SDS011;8520;50.102;20.010;2023-04-28T13:32:25;6.93;;;6.00;;
16804;SDS011;8520;50.102;20.010;2023-04-28T13:34:53;6.38;;;5.78;;
16804;SDS011;8520;50.102;20.010;2023-04-28T13:37:21;6.55;;;6.00;;
16804;SDS011;8520;50.102;20.010;2023-04-28T13:39:50;6.10;;;5.60;;
16804;SDS011;8520;50.102;20.010;2023-04-28T13:42:18;7.10;;;6.38;;
16804;SDS011;8520;50.102;20.010;2023-04-28T13:44:46;6.70;;;6.20;;
16804;SDS011;8520;50.102;20.010;2023-04-28T13:47:16;7.00;;;6.28;;
16804;SDS011;8520;50.102;20.010;2023-04-28T13:49:44;8.70;;;6.25;;
16804;SDS011;8520;50.102;20.010;2023-04-28T13:52:13;8.48;;;6.15;;
16804;SDS011;8520;50.102;20.010;2023-04-28T13:54:41;8.35;;;6.32;;
16804;SDS011;8520;50.102;20.010;2023-04-28T13:57:10;6.18;;;5.78;;
16804;SDS011;8520;50.102;20.010;2023-04-28T13:59:39;6.50;;;6.00;;
16804;SDS011;8520;50.102;20.010;2023-04-28T14:02:07;6.20;;;5.40;;
16804;SDS011;8520;50.102;20.010;2023-04-28T14:04:38;6.45;;;6.05;;
16804;SDS011;8520;50.102;20.010;2023-04-28T14:07:14;6.25;;;5.75;;
16804;SDS011;8520;50.102;20.010;2023-04-28T14:09:42;6.45;;;5.82;;
16804;SDS011;8520;50.102;20.010;2023-04-28T14:12:10;6.63;;;6.07;;
16804;SDS011;8520;50.102;20.010;2023-04-28T14:14:39;6.10;;;5.50;;
16804;SDS011;8520;50.102;20.010;2023-04-28T14:17:08;12.93;;;5.82;;
16804;SDS011;8520;50.102;20.010;2023-04-28T14:19:36;6.00;;;5.50;;
16804;SDS011;8520;50.102;20.010;2023-04-28T14:22:06;7.28;;;6.57;;
16804;SDS011;8520;50.102;20.010;2023-04-28T14:24:34;10.90;;;6.72;;
16804;SDS011;8520;50.102;20.010;2023-04-28T14:27:02;6.18;;;5.78;;
16804;SDS011;8520;50.102;20.010;2023-04-28T14:29:31;9.30;;;6.45;;
16804;SDS011;8520;50.102;20.010;2023-04-28T14:31:59;9.98;;;6.32;;
16804;SDS011;8520;50.102;20.010;2023-04-28T14:34:27;6.70;;;6.20;;
16804;SDS011;8520;50.102;20.010;2023-04-28T14:36:55;6.88;;;6.28;;
16804;SDS011;8520;50.102;20.010;2023-04-28T14:39:25;7.13;;;5.88;;
16804;SDS011;8520;50.102;20.010;2023-04-28T14:41:53;6.85;;;6.28;;
16804;SDS011;8520;50.102;20.010;2023-04-28T14:44:21;6.40;;;5.90;;
16804;SDS011;8520;50.102;20.010;2023-04-28T14:46:49;8.50;;;6.30;;
16804;SDS011;8520;50.102;20.010;2023-04-28T14:49:18;7.97;;;5.40;;
16804;SDS011;8520;50.102;20.010;2023-04-28T14:51:47;6.50;;;6.00;;
16804;SDS011;8520;50.102;20.010;2023-04-28T14:54:15;6.20;;;5.72;;
16804;SDS011;8520;50.102;20.010;2023-04-28T14:56:45;7.43;;;5.85;;
16804;SDS011;8520;50.102;20.010;2023-04-28T14:59:13;6.68;;;5.95;;
16804;SDS011;8520;50.102;20.010;2023-04-28T15:01:41;7.32;;;6.15;;
16804;SDS011;8520;50.102;20.010;2023-04-28T15:04:09;7.07;;;6.47;;
16804;SDS011;8520;50.102;20.010;2023-04-28T15:06:38;9.95;;;6.18;;
16804;SDS011;8520;50.102;20.010;2023-04-28T15:09:06;9.52;;;6.18;;